createdAt,value
2018-09-10T00:01:58.807Z,8.50
2018-09-10T00:04:27.395Z,8.50
2018-09-10T00:06:56.043Z,8.50
2018-09-10T00:09:25.175Z,8.40
2018-09-10T00:11:53.692Z,8.40
2018-09-10T00:14:22.208Z,8.40
2018-09-10T00:16:50.781Z,8.30
2018-09-10T00:19:19.985Z,8.30
2018-09-10T00:21:48.483Z,8.30
2018-09-10T00:24:17.128Z,8.20
2018-09-10T00:26:46.087Z,8.30
2018-09-10T00:29:14.630Z,8.30
2018-09-10T00:31:43.206Z,8.30
2018-09-10T00:34:11.711Z,8.20
2018-09-10T00:36:41.041Z,8.10
2018-09-10T00:39:11.816Z,8.00
2018-09-10T00:41:40.616Z,8.00
2018-09-10T00:44:09.250Z,7.90
2018-09-10T00:46:38.101Z,8.00
2018-09-10T00:49:06.816Z,7.90
2018-09-10T00:51:35.390Z,7.90
2018-09-10T00:54:04.065Z,7.90
2018-09-10T00:56:33.164Z,7.80
2018-09-10T00:59:01.748Z,7.80
2018-09-10T01:01:30.287Z,7.70
2018-09-10T01:03:58.828Z,7.70
2018-09-10T01:06:27.367Z,7.70
2018-09-10T01:08:55.884Z,7.70
2018-09-10T01:11:25.054Z,7.70
2018-09-10T01:13:53.653Z,7.70
2018-09-10T01:16:22.355Z,7.70
2018-09-10T01:18:50.975Z,7.70
2018-09-10T01:21:20.224Z,7.60
2018-09-10T01:23:48.760Z,7.60
2018-09-10T01:26:17.408Z,7.60
2018-09-10T01:28:45.999Z,7.60
2018-09-10T01:31:14.761Z,7.60
2018-09-10T01:33:49.448Z,7.50
2018-09-10T01:36:18.053Z,7.50
2018-09-10T01:38:47.180Z,7.50
2018-09-10T01:41:15.813Z,7.50
2018-09-10T01:43:45.073Z,7.40
2018-09-10T01:46:14.249Z,7.50
2018-09-10T01:48:42.925Z,7.40
2018-09-10T01:51:11.742Z,7.40
2018-09-10T01:53:40.907Z,7.30
2018-09-10T01:56:09.915Z,7.30
2018-09-10T01:58:38.488Z,7.30
2018-09-10T02:01:07.072Z,7.30
2018-09-10T02:03:35.611Z,7.30
2018-09-10T02:06:04.117Z,7.30
2018-09-10T02:08:33.421Z,7.20
2018-09-10T02:11:08.716Z,7.10
2018-09-10T02:13:37.955Z,7.10
2018-09-10T02:16:11.052Z,7.00
2018-09-10T02:18:40.226Z,7.00
2018-09-10T02:21:08.997Z,7.00
2018-09-10T02:23:37.547Z,7.00
2018-09-10T02:26:06.680Z,7.00
2018-09-10T02:28:36.067Z,7.00
2018-09-10T02:31:05.233Z,7.00
2018-09-10T02:33:33.716Z,6.90
2018-09-10T02:36:02.323Z,6.90
2018-09-10T02:38:31.549Z,6.80
2018-09-10T02:41:00.231Z,6.80
2018-09-10T02:43:28.736Z,6.70
2018-09-10T02:45:57.317Z,6.80
2018-09-10T02:48:25.793Z,6.70
2018-09-10T02:50:55.120Z,6.70
2018-09-10T02:53:24.331Z,6.80
2018-09-10T02:55:53.489Z,6.70
2018-09-10T02:58:22.469Z,6.70
2018-09-10T03:00:51.276Z,6.70
2018-09-10T03:03:20.366Z,6.70
2018-09-10T03:05:49.436Z,6.70
2018-09-10T03:08:18.046Z,6.60
2018-09-10T03:10:46.663Z,6.60
2018-09-10T03:13:15.559Z,6.60
2018-09-10T03:15:44.226Z,6.50
2018-09-10T03:18:13.712Z,6.50
2018-09-10T03:20:43.020Z,6.50
2018-09-10T03:23:12.310Z,6.50
2018-09-10T03:25:41.031Z,6.50
2018-09-10T03:28:09.553Z,6.50
2018-09-10T03:30:38.822Z,6.40
2018-09-10T03:33:08.067Z,6.40
2018-09-10T03:35:36.556Z,6.40
2018-09-10T03:38:05.141Z,6.40
2018-09-10T03:40:33.601Z,6.30
2018-09-10T03:43:02.995Z,6.20
2018-09-10T03:45:31.455Z,6.30
2018-09-10T03:48:00.009Z,6.30
2018-09-10T03:50:28.601Z,6.20
2018-09-10T03:52:57.620Z,6.20
2018-09-10T03:55:26.186Z,6.20
2018-09-10T03:57:55.424Z,6.20
2018-09-10T04:00:24.009Z,6.20
2018-09-10T04:02:52.787Z,6.20
2018-09-10T04:05:21.958Z,6.20
2018-09-10T04:07:51.322Z,6.20
2018-09-10T04:10:19.871Z,6.20
2018-09-10T04:12:48.610Z,6.20
2018-09-10T04:15:17.382Z,6.10
2018-09-10T04:17:46.205Z,6.10
2018-09-10T04:20:15.496Z,6.10
2018-09-10T04:22:44.175Z,6.00
2018-09-10T04:25:13.889Z,6.00
2018-09-10T04:27:42.998Z,6.10
2018-09-10T04:30:14.499Z,6.10
2018-09-10T04:32:43.671Z,6.00
2018-09-10T04:35:12.796Z,6.10
2018-09-10T04:37:41.903Z,6.20
2018-09-10T04:40:10.855Z,6.10
2018-09-10T04:42:40.302Z,6.10
2018-09-10T04:45:08.988Z,6.10
2018-09-10T04:47:37.686Z,6.10
2018-09-10T04:50:06.738Z,6.10
2018-09-10T04:52:35.290Z,6.00
2018-09-10T04:55:04.123Z,6.00
2018-09-10T04:57:33.309Z,5.90
2018-09-10T05:00:01.954Z,6.00
2018-09-10T05:02:31.265Z,6.00
2018-09-10T05:05:05.852Z,6.10
2018-09-10T05:07:35.572Z,6.10
2018-09-10T05:10:04.440Z,6.10
2018-09-10T05:12:33.891Z,6.10
2018-09-10T05:15:02.595Z,6.10
2018-09-10T05:17:31.148Z,6.00
2018-09-10T05:19:59.690Z,6.00
2018-09-10T05:22:28.160Z,6.10
2018-09-10T05:24:57.063Z,6.00
2018-09-10T05:27:26.410Z,6.10
2018-09-10T05:29:54.939Z,6.10
2018-09-10T05:32:23.799Z,6.20
2018-09-10T05:34:53.109Z,6.20
2018-09-10T05:37:21.880Z,6.30
2018-09-10T05:39:50.583Z,6.30
2018-09-10T05:42:19.678Z,6.40
2018-09-10T05:44:48.303Z,6.40
2018-09-10T05:47:17.215Z,6.50
2018-09-10T05:49:46.667Z,6.60
2018-09-10T05:52:15.852Z,6.60
2018-09-10T05:54:45.029Z,6.60
2018-09-10T05:57:14.216Z,6.80
2018-09-10T05:59:43.019Z,6.90
2018-09-10T06:02:11.827Z,7.00
2018-09-10T06:04:40.496Z,7.10
2018-09-10T06:07:09.149Z,7.20
2018-09-10T06:09:37.767Z,7.30
2018-09-10T06:12:06.356Z,7.40
2018-09-10T06:14:35.227Z,7.50
2018-09-10T06:17:03.977Z,7.60
2018-09-10T06:19:32.492Z,7.80
2018-09-10T06:22:01.079Z,7.90
2018-09-10T06:24:29.571Z,8.10
2018-09-10T06:26:58.692Z,8.30
2018-09-10T06:29:27.253Z,8.40
2018-09-10T06:31:56.532Z,8.60
2018-09-10T06:34:25.267Z,8.80
2018-09-10T06:36:53.910Z,8.90
2018-09-10T06:39:22.529Z,9.10
2018-09-10T06:41:51.474Z,9.20
2018-09-10T06:44:20.675Z,9.30
2018-09-10T06:46:49.291Z,9.50
2018-09-10T06:49:17.993Z,9.60
2018-09-10T06:51:46.546Z,9.70
2018-09-10T06:54:15.216Z,9.90
2018-09-10T06:56:43.697Z,10.10
2018-09-10T06:59:12.278Z,10.20
2018-09-10T07:01:41.272Z,10.50
2018-09-10T07:04:10.446Z,10.70
2018-09-10T07:06:39.710Z,10.80
2018-09-10T07:09:09.586Z,10.90
2018-09-10T07:11:39.038Z,11.00
2018-09-10T07:14:08.461Z,11.10
2018-09-10T07:16:37.496Z,11.20
2018-09-10T07:19:06.679Z,11.30
2018-09-10T07:21:36.041Z,11.60
2018-09-10T07:24:05.151Z,11.80
2018-09-10T07:26:34.639Z,11.90
2018-09-10T07:29:03.641Z,12.00
2018-09-10T07:31:32.230Z,12.10
2018-09-10T07:34:01.076Z,12.20
2018-09-10T07:36:30.520Z,12.40
2018-09-10T07:38:59.428Z,12.60
2018-09-10T07:41:28.110Z,12.80
2018-09-10T07:43:57.009Z,13.10
2018-09-10T07:46:26.444Z,13.20
2018-09-10T07:48:55.492Z,13.40
2018-09-10T07:51:24.448Z,13.60
2018-09-10T07:53:53.275Z,13.80
2018-09-10T07:56:22.089Z,13.90
2018-09-10T07:58:51.369Z,14.10
2018-09-10T08:01:20.529Z,14.10
2018-09-10T08:03:49.338Z,14.30
2018-09-10T08:06:18.114Z,14.60
2018-09-10T08:08:47.311Z,14.80
2018-09-10T08:11:16.566Z,15.10
2018-09-10T08:13:46.071Z,15.40
2018-09-10T08:16:14.984Z,15.60
2018-09-10T08:18:44.627Z,15.90
2018-09-10T08:21:13.984Z,16.10
2018-09-10T08:23:42.667Z,16.40
2018-09-10T08:26:11.765Z,16.70
2018-09-10T08:28:41.193Z,16.90
2018-09-10T08:31:10.288Z,17.20
2018-09-10T08:33:39.542Z,17.40
2018-09-10T08:36:08.395Z,17.50
2018-09-10T08:38:37.545Z,17.70
2018-09-10T08:41:06.272Z,17.70
2018-09-10T08:43:34.968Z,17.80
2018-09-10T08:46:04.417Z,17.90
2018-09-10T08:48:33.153Z,18.00
2018-09-10T08:51:02.042Z,18.00
2018-09-10T08:53:30.600Z,18.10
2018-09-10T08:55:59.429Z,18.20
2018-09-10T08:58:27.932Z,18.40
2018-09-10T09:00:57.067Z,18.60
2018-09-10T09:03:25.571Z,18.80
2018-09-10T09:05:54.507Z,18.90
2018-09-10T09:08:23.850Z,19.20
2018-09-10T09:10:53.121Z,19.40
2018-09-10T09:13:22.391Z,19.50
2018-09-10T09:15:51.258Z,19.70
2018-09-10T09:18:19.872Z,19.90
2018-09-10T09:20:48.777Z,20.10
2018-09-10T09:23:17.584Z,20.30
2018-09-10T09:25:45.938Z,20.60
2018-09-10T09:28:14.463Z,20.80
2018-09-10T09:30:43.148Z,21.00
2018-09-10T09:33:11.887Z,21.20
2018-09-10T09:35:47.168Z,21.40
2018-09-10T09:38:20.784Z,21.60
2018-09-10T09:40:54.592Z,21.90
2018-09-10T09:43:28.683Z,22.20
2018-09-10T09:46:02.445Z,22.40
2018-09-10T09:48:30.944Z,22.60
2018-09-10T09:51:00.078Z,22.80
2018-09-10T09:53:28.568Z,23.00
2018-09-10T09:55:57.119Z,23.10
2018-09-10T09:58:25.725Z,23.30
2018-09-10T10:00:57.214Z,23.50
2018-09-10T10:03:31.050Z,23.60
2018-09-10T10:06:00.259Z,23.80
2018-09-10T10:08:28.819Z,24.00
2018-09-10T10:10:57.339Z,24.20
2018-09-10T10:13:25.944Z,24.50
2018-09-10T10:15:55.134Z,24.60
2018-09-10T10:18:24.357Z,24.60
2018-09-10T10:20:52.811Z,24.60
2018-09-10T10:23:21.509Z,24.60
2018-09-10T10:25:50.104Z,24.60
2018-09-10T10:28:18.736Z,24.50
2018-09-10T10:30:47.362Z,24.40
2018-09-10T10:33:15.943Z,24.40
2018-09-10T10:35:45.073Z,24.30
2018-09-10T10:38:13.738Z,24.40
2018-09-10T10:40:42.468Z,24.50
2018-09-10T10:43:11.150Z,24.60
2018-09-10T10:45:39.995Z,24.60
2018-09-10T10:48:08.548Z,24.80
2018-09-10T10:50:37.148Z,24.90
2018-09-10T10:53:05.816Z,25.20
2018-09-10T10:55:34.513Z,25.10
2018-09-10T10:58:04.132Z,25.30
2018-09-10T11:00:32.648Z,25.20
2018-09-10T11:03:01.292Z,25.30
2018-09-10T11:05:29.856Z,25.50
2018-09-10T11:07:58.391Z,25.60
2018-09-10T11:10:27.030Z,25.80
2018-09-10T11:12:56.204Z,26.00
2018-09-10T11:15:24.865Z,26.10
2018-09-10T11:17:53.613Z,26.30
2018-09-10T11:20:22.257Z,26.40
2018-09-10T11:22:50.906Z,26.60
2018-09-10T11:25:19.728Z,26.70
2018-09-10T11:27:48.360Z,26.90
2018-09-10T11:30:16.952Z,27.40
2018-09-10T11:32:45.673Z,27.60
2018-09-10T11:35:14.304Z,27.80
2018-09-10T11:37:43.403Z,27.90
2018-09-10T11:40:12.390Z,27.90
2018-09-10T11:42:41.396Z,28.00
2018-09-10T11:45:10.710Z,28.00
2018-09-10T11:47:40.205Z,27.90
2018-09-10T11:50:09.030Z,27.70
2018-09-10T11:52:38.312Z,27.50
2018-09-10T11:55:07.453Z,27.30
2018-09-10T11:57:36.859Z,27.30
2018-09-10T12:00:05.538Z,27.40
2018-09-10T12:02:34.157Z,27.40
2018-09-10T12:05:03.115Z,27.40
2018-09-10T12:07:31.898Z,27.30
2018-09-10T12:10:01.021Z,27.40
2018-09-10T12:12:30.024Z,27.60
2018-09-10T12:14:58.979Z,27.70
2018-09-10T12:17:27.830Z,27.80
2018-09-10T12:19:56.498Z,27.80
2018-09-10T12:22:25.216Z,27.90
2018-09-10T12:24:53.827Z,27.90
2018-09-10T12:27:22.475Z,27.60
2018-09-10T12:29:51.087Z,27.40
2018-09-10T12:32:19.714Z,27.40
2018-09-10T12:34:48.187Z,27.40
2018-09-10T12:37:16.754Z,27.20
2018-09-10T12:39:46.011Z,27.20
2018-09-10T12:42:16.161Z,27.10
2018-09-10T12:44:44.985Z,27.10
2018-09-10T12:47:15.141Z,27.00
2018-09-10T12:49:44.024Z,27.10
2018-09-10T12:52:12.535Z,27.00
2018-09-10T12:54:41.481Z,27.10
2018-09-10T12:57:10.327Z,27.00
2018-09-10T12:59:39.139Z,27.00
2018-09-10T13:02:08.020Z,27.00
2018-09-10T13:04:36.916Z,27.30
2018-09-10T13:07:06.203Z,27.40
2018-09-10T13:09:35.386Z,27.40
2018-09-10T13:12:04.644Z,27.30
2018-09-10T13:14:33.479Z,27.20
2018-09-10T13:17:02.195Z,27.00
2018-09-10T13:19:31.060Z,27.00
2018-09-10T13:22:00.614Z,27.00
2018-09-10T13:24:29.740Z,27.00
2018-09-10T13:26:58.493Z,27.10
2018-09-10T13:29:28.132Z,27.00
2018-09-10T13:31:56.724Z,27.10
2018-09-10T13:34:25.300Z,27.20
2018-09-10T13:36:53.915Z,27.20
2018-09-10T13:39:22.728Z,27.20
2018-09-10T13:41:51.462Z,27.30
2018-09-10T13:44:20.285Z,27.50
2018-09-10T13:46:49.062Z,27.60
2018-09-10T13:49:17.782Z,27.80
2018-09-10T13:51:46.382Z,27.90
2018-09-10T13:54:15.364Z,28.00
2018-09-10T13:56:44.719Z,28.10
2018-09-10T13:59:13.336Z,27.80
2018-09-10T14:01:42.155Z,27.70
2018-09-10T14:04:10.776Z,27.70
2018-09-10T14:06:39.468Z,27.70
2018-09-10T14:09:08.573Z,27.50
2018-09-10T14:11:38.439Z,27.50
2018-09-10T14:14:07.907Z,27.40
2018-09-10T14:16:36.658Z,27.60
2018-09-10T14:19:05.889Z,27.80
2018-09-10T14:21:34.817Z,28.00
2018-09-10T14:24:03.654Z,28.20
2018-09-10T14:26:32.589Z,28.30
2018-09-10T14:29:01.670Z,28.10
2018-09-10T14:31:31.613Z,28.10
2018-09-10T14:34:00.200Z,28.00
2018-09-10T14:36:29.438Z,27.90
2018-09-10T14:38:58.216Z,28.00
2018-09-10T14:41:27.764Z,27.90
2018-09-10T14:43:56.404Z,28.00
2018-09-10T14:46:25.393Z,28.00
2018-09-10T14:48:54.493Z,28.10
2018-09-10T14:51:23.108Z,28.20
2018-09-10T14:53:52.453Z,28.20
2018-09-10T14:56:21.204Z,28.20
2018-09-10T14:58:50.318Z,28.20
2018-09-10T15:01:18.972Z,28.20
2018-09-10T15:03:47.889Z,28.30
2018-09-10T15:06:16.800Z,28.30
2018-09-10T15:08:45.375Z,28.40
2018-09-10T15:11:14.128Z,28.50
2018-09-10T15:13:42.783Z,28.80
2018-09-10T15:16:11.390Z,28.90
2018-09-10T15:18:40.242Z,29.00
2018-09-10T15:21:09.451Z,29.10
2018-09-10T15:23:38.606Z,29.10
2018-09-10T15:26:08.217Z,29.40
2018-09-10T15:28:37.236Z,29.20
2018-09-10T15:31:06.488Z,29.40
2018-09-10T15:33:36.008Z,30.20
2018-09-10T15:36:05.281Z,31.20
2018-09-10T15:38:34.048Z,31.90
2018-09-10T15:41:04.340Z,31.90
2018-09-10T15:43:33.373Z,32.30
2018-09-10T15:46:02.875Z,32.60
2018-09-10T15:48:32.210Z,33.10
2018-09-10T15:51:01.290Z,33.70
2018-09-10T15:53:30.461Z,33.50
2018-09-10T15:55:59.263Z,33.90
2018-09-10T15:58:29.090Z,33.80
2018-09-10T16:00:58.075Z,33.60
2018-09-10T16:03:27.666Z,33.30
2018-09-10T16:05:56.501Z,33.30
2018-09-10T16:08:25.486Z,33.10
2018-09-10T16:10:54.243Z,32.80
2018-09-10T16:13:23.289Z,32.50
2018-09-10T16:15:52.487Z,32.20
2018-09-10T16:18:23.731Z,32.00
2018-09-10T16:20:53.817Z,31.60
2018-09-10T16:23:23.746Z,31.40
2018-09-10T16:25:53.346Z,31.00
2018-09-10T16:28:22.559Z,30.60
2018-09-10T16:30:51.685Z,30.10
2018-09-10T16:33:21.089Z,29.90
2018-09-10T16:35:53.191Z,30.00
2018-09-10T16:38:22.597Z,29.80
2018-09-10T16:40:51.985Z,29.10
2018-09-10T16:43:21.084Z,28.80
2018-09-10T16:45:50.128Z,28.20
2018-09-10T16:48:19.392Z,27.40
2018-09-10T16:50:48.379Z,26.70
2018-09-10T16:53:17.662Z,26.20
2018-09-10T16:55:46.766Z,25.70
2018-09-10T16:58:16.881Z,25.30
2018-09-10T17:00:45.897Z,24.80
2018-09-10T17:03:16.077Z,24.30
2018-09-10T17:05:46.026Z,23.90
2018-09-10T17:08:15.301Z,23.50
2018-09-10T17:10:45.092Z,23.10
2018-09-10T17:13:15.313Z,22.70
2018-09-10T17:15:45.883Z,22.40
2018-09-10T17:18:15.947Z,22.10
2018-09-10T17:20:45.926Z,21.70
2018-09-10T17:23:15.017Z,21.40
2018-09-10T17:25:45.383Z,21.10
2018-09-10T17:28:14.732Z,20.90
2018-09-10T17:30:43.792Z,20.70
2018-09-10T17:33:13.090Z,20.50
2018-09-10T17:35:41.961Z,20.30
2018-09-10T17:38:12.109Z,20.10
2018-09-10T17:40:42.016Z,20.00
2018-09-10T17:43:11.800Z,19.90
2018-09-10T17:45:40.660Z,19.80
2018-09-10T17:48:10.474Z,19.70
2018-09-10T17:50:39.446Z,19.50
2018-09-10T17:53:08.944Z,19.40
2018-09-10T17:55:38.002Z,19.10
2018-09-10T17:58:07.020Z,18.80
2018-09-10T18:00:40.309Z,18.60
2018-09-10T18:03:12.242Z,18.40
2018-09-10T18:05:41.823Z,18.30
2018-09-10T18:08:11.260Z,18.20
2018-09-10T18:10:40.115Z,18.10
2018-09-10T18:13:09.447Z,17.90
2018-09-10T18:15:38.427Z,17.70
2018-09-10T18:18:07.833Z,17.40
2018-09-10T18:20:37.124Z,17.20
2018-09-10T18:23:06.033Z,17.00
2018-09-10T18:25:36.040Z,16.90
2018-09-10T18:28:05.486Z,16.80
2018-09-10T18:30:35.780Z,16.60
2018-09-10T18:33:04.918Z,16.50
2018-09-10T18:35:33.913Z,16.50
2018-09-10T18:38:04.831Z,16.40
2018-09-10T18:40:34.656Z,16.30
2018-09-10T18:43:03.785Z,16.30
2018-09-10T18:45:32.481Z,16.10
2018-09-10T18:48:01.331Z,15.90
2018-09-10T18:50:30.550Z,15.80
2018-09-10T18:52:59.773Z,15.70
2018-09-10T18:55:28.919Z,15.60
2018-09-10T18:57:57.831Z,15.60
2018-09-10T19:00:27.643Z,15.60
2018-09-10T19:02:56.454Z,15.50
2018-09-10T19:05:26.246Z,15.40
2018-09-10T19:07:55.147Z,15.40
2018-09-10T19:10:24.382Z,15.30
2018-09-10T19:12:53.539Z,15.20
2018-09-10T19:15:22.498Z,15.20
2018-09-10T19:17:52.161Z,15.10
2018-09-10T19:20:21.579Z,15.00
2018-09-10T19:22:50.534Z,14.90
2018-09-10T19:25:20.229Z,14.80
2018-09-10T19:27:49.753Z,14.80
2018-09-10T19:30:19.390Z,14.80
2018-09-10T19:32:48.277Z,14.80
2018-09-10T19:35:17.418Z,14.70
2018-09-10T19:37:46.524Z,14.60
2018-09-10T19:40:15.900Z,14.50
2018-09-10T19:42:44.729Z,14.40
2018-09-10T19:45:14.167Z,14.30
2018-09-10T19:47:43.681Z,14.20
2018-09-10T19:50:12.456Z,14.20
2018-09-10T19:52:41.624Z,14.20
2018-09-10T19:55:11.346Z,14.20
2018-09-10T19:57:40.114Z,14.20
2018-09-10T20:00:09.884Z,14.10
2018-09-10T20:02:39.675Z,14.00
2018-09-10T20:05:10.100Z,14.00
2018-09-10T20:07:39.361Z,13.90
2018-09-10T20:10:08.770Z,13.90
2018-09-10T20:12:37.913Z,13.80
2018-09-10T20:15:06.672Z,13.80
2018-09-10T20:17:35.634Z,13.70
2018-09-10T20:20:05.792Z,13.60
2018-09-10T20:22:34.673Z,13.50
2018-09-10T20:25:05.362Z,13.50
2018-09-10T20:27:34.888Z,13.50
2018-09-10T20:30:05.129Z,13.50
2018-09-10T20:32:34.056Z,13.40
2018-09-10T20:35:03.805Z,13.30
2018-09-10T20:37:32.608Z,13.30
2018-09-10T20:40:01.475Z,13.30
2018-09-10T20:42:30.422Z,13.20
2018-09-10T20:45:00.089Z,13.20
2018-09-10T20:47:29.230Z,13.20
2018-09-10T20:49:58.043Z,13.10
2018-09-10T20:52:26.669Z,13.10
2018-09-10T20:54:55.485Z,13.00
2018-09-10T20:57:24.494Z,12.90
2018-09-10T20:59:53.676Z,12.90
2018-09-10T21:02:23.149Z,12.80
2018-09-10T21:04:52.470Z,12.80
2018-09-10T21:07:21.975Z,12.80
2018-09-10T21:09:51.009Z,12.70
2018-09-10T21:12:20.190Z,12.70
2018-09-10T21:14:49.550Z,12.70
2018-09-10T21:17:18.598Z,12.80
2018-09-10T21:19:47.924Z,12.80
2018-09-10T21:22:17.096Z,12.80
2018-09-10T21:24:45.723Z,12.70
2018-09-10T21:27:14.509Z,12.70
2018-09-10T21:29:43.495Z,12.70
2018-09-10T21:32:12.613Z,12.60
2018-09-10T21:34:41.512Z,12.60
2018-09-10T21:37:10.327Z,12.70
2018-09-10T21:39:38.978Z,12.70
2018-09-10T21:42:08.749Z,12.60
2018-09-10T21:44:38.374Z,12.60
2018-09-10T21:47:07.206Z,12.60
2018-09-10T21:49:36.658Z,12.50
2018-09-10T21:52:05.660Z,12.40
2018-09-10T21:54:34.440Z,12.40
2018-09-10T21:57:03.188Z,12.40
2018-09-10T21:59:32.462Z,12.30
2018-09-10T22:02:01.283Z,12.30
2018-09-10T22:04:30.449Z,12.30
2018-09-10T22:07:00.058Z,12.30
2018-09-10T22:09:28.640Z,12.30
2018-09-10T22:12:03.052Z,12.30
2018-09-10T22:14:32.544Z,12.30
2018-09-10T22:17:10.776Z,12.20
2018-09-10T22:19:39.877Z,12.20
2018-09-10T22:22:08.468Z,12.10
2018-09-10T22:24:37.334Z,12.10
2018-09-10T22:27:06.614Z,12.00
2018-09-10T22:29:35.506Z,12.00
2018-09-10T22:32:04.066Z,12.00
2018-09-10T22:34:32.979Z,11.90
2018-09-10T22:37:01.881Z,11.90
2018-09-10T22:39:30.665Z,11.90
2018-09-10T22:41:59.571Z,11.90
2018-09-10T22:44:29.072Z,11.90
2018-09-10T22:46:58.404Z,11.90
2018-09-10T22:49:27.816Z,11.80
2018-09-10T22:51:56.773Z,11.80
2018-09-10T22:54:26.171Z,11.80
2018-09-10T22:56:54.848Z,11.70
2018-09-10T22:59:23.735Z,11.70
2018-09-10T23:01:52.247Z,11.60
2018-09-10T23:04:20.857Z,11.60
2018-09-10T23:06:49.448Z,11.60
2018-09-10T23:09:18.177Z,11.50
2018-09-10T23:11:47.802Z,11.50
2018-09-10T23:14:17.200Z,11.50
2018-09-10T23:16:46.244Z,11.60
2018-09-10T23:19:15.292Z,11.50
2018-09-10T23:21:44.678Z,11.40
2018-09-10T23:24:13.782Z,11.40
2018-09-10T23:26:42.418Z,11.40
2018-09-10T23:29:10.984Z,11.40
2018-09-10T23:31:41.153Z,11.30
2018-09-10T23:34:09.923Z,11.30
2018-09-10T23:36:38.566Z,11.30
2018-09-10T23:39:09.016Z,11.20
2018-09-10T23:41:39.661Z,11.20
2018-09-10T23:44:08.324Z,11.30
2018-09-10T23:46:37.096Z,11.20
2018-09-10T23:49:05.961Z,11.30
2018-09-10T23:51:35.500Z,11.20
2018-09-10T23:54:04.274Z,11.10
2018-09-10T23:56:33.691Z,11.10
2018-09-10T23:59:02.860Z,11.10
